createdAt,value
2022-07-30T00:01:35.726Z,2.80
2022-07-30T00:04:05.006Z,2.77
2022-07-30T00:06:37.550Z,2.80
2022-07-30T00:09:05.677Z,2.80
2022-07-30T00:11:33.812Z,2.63
2022-07-30T00:14:02.110Z,2.73
2022-07-30T00:16:33.473Z,2.60
2022-07-30T00:19:01.699Z,3.00
2022-07-30T00:21:36.041Z,2.60
2022-07-30T00:24:11.329Z,2.60
2022-07-30T00:26:39.921Z,2.80
2022-07-30T00:29:09.527Z,2.60
2022-07-30T00:31:37.695Z,2.40
2022-07-30T00:34:05.922Z,2.50
2022-07-30T00:36:34.354Z,2.50
2022-07-30T00:39:07.640Z,2.17
2022-07-30T00:41:38.033Z,2.40
2022-07-30T00:44:06.488Z,2.67
2022-07-30T00:46:34.658Z,2.60
2022-07-30T00:49:03.062Z,2.57
2022-07-30T00:51:31.803Z,2.63
2022-07-30T00:54:04.266Z,2.70
2022-07-30T00:56:37.141Z,2.73
2022-07-30T00:59:05.501Z,2.80
2022-07-30T01:01:34.213Z,2.80
2022-07-30T01:04:02.744Z,2.90
2022-07-30T01:06:30.922Z,2.57
2022-07-30T01:09:00.915Z,2.70
2022-07-30T01:11:37.024Z,2.80
2022-07-30T01:14:05.864Z,2.90
2022-07-30T01:16:34.248Z,2.47
2022-07-30T01:19:23.261Z,2.73
2022-07-30T01:22:02.959Z,2.63
2022-07-30T01:24:38.980Z,2.60
2022-07-30T01:27:11.321Z,2.60
2022-07-30T01:29:42.347Z,2.60
2022-07-30T01:32:12.487Z,2.37
2022-07-30T01:34:41.380Z,2.43
2022-07-30T01:37:11.869Z,2.57
2022-07-30T01:39:41.084Z,2.63
2022-07-30T01:42:13.433Z,2.97
2022-07-30T01:44:43.063Z,3.00
2022-07-30T01:47:17.666Z,3.20
2022-07-30T01:49:49.461Z,2.60
2022-07-30T01:52:20.244Z,2.90
2022-07-30T01:54:52.064Z,2.53
2022-07-30T01:57:24.782Z,2.83
2022-07-30T02:00:00.221Z,2.80
2022-07-30T02:02:31.498Z,2.70
2022-07-30T02:05:01.220Z,3.00
2022-07-30T02:07:35.204Z,2.87
2022-07-30T02:10:06.592Z,3.20
2022-07-30T02:12:42.277Z,2.87
2022-07-30T02:15:19.484Z,2.70
2022-07-30T02:17:56.079Z,2.90
2022-07-30T02:20:28.542Z,2.90
2022-07-30T02:23:02.491Z,2.80
2022-07-30T02:25:35.258Z,2.87
2022-07-30T02:28:12.073Z,2.70
2022-07-30T02:30:48.243Z,2.73
2022-07-30T02:33:18.971Z,2.60
2022-07-30T02:35:47.454Z,2.97
2022-07-30T02:38:18.761Z,2.70
2022-07-30T02:40:48.251Z,3.00
2022-07-30T02:43:22.092Z,3.30
2022-07-30T02:45:54.600Z,3.20
2022-07-30T02:48:31.221Z,2.93
2022-07-30T02:51:05.452Z,2.60
2022-07-30T02:53:35.678Z,2.80
2022-07-30T02:56:06.762Z,2.77
2022-07-30T02:58:41.221Z,3.03
2022-07-30T03:01:11.083Z,2.90
2022-07-30T03:03:41.983Z,3.00
2022-07-30T03:06:11.499Z,2.90
2022-07-30T03:08:41.096Z,2.80
2022-07-30T03:11:12.036Z,2.90
2022-07-30T03:13:42.160Z,2.80
2022-07-30T03:16:14.858Z,2.80
2022-07-30T03:18:46.837Z,3.00
2022-07-30T03:21:18.988Z,3.23
2022-07-30T03:23:51.125Z,3.30
2022-07-30T03:26:22.608Z,2.97
2022-07-30T03:28:53.610Z,3.67
2022-07-30T03:31:21.881Z,3.23
2022-07-30T03:33:51.188Z,3.17
2022-07-30T03:36:21.522Z,3.40
2022-07-30T03:38:51.235Z,3.40
2022-07-30T03:41:20.782Z,3.37
2022-07-30T03:43:53.564Z,3.30
2022-07-30T03:46:25.153Z,3.53
2022-07-30T03:48:54.639Z,3.70
2022-07-30T03:51:26.609Z,3.57
2022-07-30T03:54:02.190Z,3.37
2022-07-30T03:56:31.099Z,3.50
2022-07-30T03:58:59.851Z,3.10
2022-07-30T04:01:29.612Z,3.73
2022-07-30T04:04:05.209Z,4.27
2022-07-30T04:06:37.002Z,3.60
2022-07-30T04:09:05.193Z,4.47
2022-07-30T04:11:40.766Z,4.53
2022-07-30T04:14:12.668Z,3.83
2022-07-30T04:16:48.096Z,4.17
2022-07-30T04:19:23.529Z,3.80
2022-07-30T04:21:55.359Z,3.67
2022-07-30T04:24:25.373Z,4.20
2022-07-30T04:26:54.594Z,4.07
2022-07-30T04:29:24.882Z,4.13
2022-07-30T04:31:56.246Z,3.60
2022-07-30T04:34:24.940Z,3.80
2022-07-30T04:36:53.345Z,3.40
2022-07-30T04:39:22.113Z,3.23
2022-07-30T04:41:50.352Z,3.20
2022-07-30T04:44:20.084Z,3.00
2022-07-30T04:46:48.887Z,3.23
2022-07-30T04:49:20.454Z,3.27
2022-07-30T04:51:50.739Z,3.30
2022-07-30T04:54:21.189Z,3.27
2022-07-30T04:56:53.979Z,3.43
2022-07-30T04:59:28.491Z,3.50
2022-07-30T05:01:59.898Z,3.30
2022-07-30T05:04:33.165Z,3.33
2022-07-30T05:07:03.065Z,3.27
2022-07-30T05:09:32.121Z,3.57
2022-07-30T05:12:01.133Z,3.37
2022-07-30T05:14:31.688Z,3.43
2022-07-30T05:17:00.389Z,3.67
2022-07-30T05:19:30.162Z,3.27
2022-07-30T05:21:58.394Z,3.60
2022-07-30T05:24:26.972Z,3.37
2022-07-30T05:26:55.557Z,3.40
2022-07-30T05:29:25.518Z,3.43
2022-07-30T05:31:53.739Z,3.50
2022-07-30T05:34:23.561Z,3.50
2022-07-30T05:36:53.392Z,3.30
2022-07-30T05:39:21.831Z,3.57
2022-07-30T05:41:52.295Z,3.50
2022-07-30T05:44:23.981Z,3.70
2022-07-30T05:46:52.448Z,3.53
2022-07-30T05:49:21.617Z,3.63
2022-07-30T05:51:50.373Z,3.33
2022-07-30T05:54:20.157Z,3.30
2022-07-30T05:56:48.282Z,3.20
2022-07-30T05:59:25.708Z,3.00
2022-07-30T06:01:53.897Z,3.20
2022-07-30T06:04:22.151Z,3.50
2022-07-30T06:06:50.487Z,2.90
2022-07-30T06:09:24.312Z,2.87
2022-07-30T06:12:07.339Z,2.80
2022-07-30T06:14:36.916Z,2.73
2022-07-30T06:17:05.255Z,2.70
2022-07-30T06:19:33.519Z,3.07
2022-07-30T06:22:06.093Z,2.97
2022-07-30T06:24:37.548Z,3.00
2022-07-30T06:27:06.402Z,3.20
2022-07-30T06:29:37.556Z,3.07
2022-07-30T06:32:06.623Z,2.70
2022-07-30T06:34:34.957Z,3.10
2022-07-30T06:37:04.000Z,3.33
2022-07-30T06:39:57.685Z,3.10
2022-07-30T06:42:22.068Z,3.20
2022-07-30T06:44:50.126Z,2.80
2022-07-30T06:47:29.375Z,2.90
2022-07-30T06:49:57.714Z,2.87
2022-07-30T06:52:26.032Z,3.00
2022-07-30T06:54:54.260Z,2.80
2022-07-30T06:57:23.844Z,2.97
2022-07-30T06:59:56.187Z,2.80
2022-07-30T07:02:25.769Z,3.37
2022-07-30T07:04:53.890Z,3.00
2022-07-30T07:07:37.415Z,3.33
2022-07-30T07:10:12.336Z,3.50
2022-07-30T07:12:42.070Z,3.30
2022-07-30T07:15:11.692Z,3.10
2022-07-30T07:17:40.514Z,3.03
2022-07-30T07:20:09.413Z,2.97
2022-07-30T07:22:38.314Z,2.97
2022-07-30T07:25:07.519Z,3.13
2022-07-30T07:27:35.663Z,3.07
2022-07-30T07:30:06.455Z,3.13
2022-07-30T07:32:35.676Z,3.20
2022-07-30T07:35:08.580Z,3.33
2022-07-30T07:37:36.923Z,3.07
2022-07-30T07:40:06.922Z,3.00
2022-07-30T07:42:35.377Z,3.07
2022-07-30T07:45:05.441Z,3.43
2022-07-30T07:47:43.966Z,3.23
2022-07-30T07:50:21.249Z,3.13
2022-07-30T07:52:49.514Z,3.30
2022-07-30T07:55:17.729Z,3.40
2022-07-30T07:57:47.456Z,3.00
2022-07-30T08:00:19.144Z,3.53
2022-07-30T08:02:48.445Z,3.17
2022-07-30T08:05:18.111Z,3.10
2022-07-30T08:07:50.188Z,2.73
2022-07-30T08:10:19.152Z,3.13
2022-07-30T08:12:47.370Z,3.25
2022-07-30T08:15:21.555Z,3.10
2022-07-30T08:17:50.568Z,3.40
2022-07-30T08:20:18.814Z,3.20
2022-07-30T08:22:47.239Z,3.47
2022-07-30T08:25:22.365Z,3.65
2022-07-30T08:27:53.281Z,3.08
2022-07-30T08:30:23.095Z,3.38
2022-07-30T08:32:51.305Z,3.40
2022-07-30T08:35:19.510Z,5.45
2022-07-30T08:37:47.911Z,3.53
2022-07-30T08:40:21.473Z,3.17
2022-07-30T08:42:49.870Z,3.50
2022-07-30T08:45:19.303Z,3.70
2022-07-30T08:47:52.879Z,4.18
2022-07-30T08:50:22.600Z,3.67
2022-07-30T08:52:58.254Z,4.40
2022-07-30T08:55:27.095Z,4.18
2022-07-30T08:57:55.743Z,4.03
2022-07-30T09:00:24.428Z,3.90
2022-07-30T09:02:53.961Z,3.47
2022-07-30T09:05:22.125Z,3.75
2022-07-30T09:07:50.236Z,4.00
2022-07-30T09:10:19.648Z,3.83
2022-07-30T09:12:49.383Z,3.53
2022-07-30T09:15:20.283Z,3.90
2022-07-30T09:17:51.555Z,4.20
2022-07-30T09:20:22.251Z,3.58
2022-07-30T09:22:52.406Z,3.72
2022-07-30T09:25:35.550Z,3.20
2022-07-30T09:28:15.597Z,3.53
2022-07-30T09:30:49.971Z,3.65
2022-07-30T09:33:34.040Z,3.65
2022-07-30T09:36:04.436Z,3.13
2022-07-30T09:38:43.767Z,3.28
2022-07-30T09:41:36.199Z,3.08
2022-07-30T09:44:09.429Z,2.90
2022-07-30T09:46:50.861Z,2.88
2022-07-30T09:49:21.130Z,3.00
2022-07-30T09:51:54.784Z,3.20
2022-07-30T09:54:25.990Z,3.20
2022-07-30T09:57:22.686Z,2.97
2022-07-30T09:59:54.333Z,3.25
2022-07-30T10:02:29.611Z,3.15
2022-07-30T10:05:14.266Z,2.92
2022-07-30T10:07:52.421Z,3.00
2022-07-30T10:10:25.787Z,2.92
2022-07-30T10:12:59.029Z,2.72
2022-07-30T10:15:32.509Z,2.92
2022-07-30T10:18:02.171Z,2.58
2022-07-30T10:20:35.198Z,2.75
2022-07-30T10:23:09.079Z,2.88
2022-07-30T10:25:48.981Z,2.60
2022-07-30T10:28:19.441Z,2.65
2022-07-30T10:30:51.477Z,2.35
2022-07-30T10:33:34.592Z,2.60
2022-07-30T10:36:09.015Z,2.55
2022-07-30T10:38:43.036Z,2.80
2022-07-30T10:41:22.214Z,2.63
2022-07-30T10:44:36.535Z,2.90
2022-07-30T10:47:07.576Z,2.53
2022-07-30T10:49:41.246Z,2.40
2022-07-30T10:52:12.273Z,2.30
2022-07-30T10:54:45.135Z,2.23
2022-07-30T10:57:31.886Z,2.17
2022-07-30T11:00:17.942Z,2.33
2022-07-30T11:03:18.195Z,2.50
2022-07-30T11:05:48.536Z,2.53
2022-07-30T11:08:36.411Z,2.13
2022-07-30T11:11:59.260Z,2.13
2022-07-30T11:14:16.007Z,2.03
2022-07-30T11:17:00.835Z,2.00
2022-07-30T11:19:56.793Z,1.80
2022-07-30T11:22:30.012Z,2.20
2022-07-30T11:25:02.773Z,1.97
2022-07-30T11:27:45.960Z,2.10
2022-07-30T11:30:35.980Z,1.87
2022-07-30T11:33:32.979Z,2.00
2022-07-30T11:36:12.561Z,2.03
2022-07-30T11:39:05.121Z,2.20
2022-07-30T11:41:35.872Z,2.17
2022-07-30T11:44:35.076Z,2.23
2022-07-30T11:47:04.215Z,3.30
2022-07-30T11:49:36.807Z,3.00
2022-07-30T11:52:05.592Z,3.40
2022-07-30T11:54:33.752Z,2.83
2022-07-30T11:57:04.632Z,2.70
2022-07-30T11:59:53.397Z,2.93
2022-07-30T12:02:28.850Z,3.20
2022-07-30T12:04:56.957Z,3.30
2022-07-30T12:07:25.264Z,3.03
2022-07-30T12:09:53.526Z,3.83
2022-07-30T12:12:25.191Z,4.13
2022-07-30T12:14:57.899Z,4.30
2022-07-30T12:17:42.535Z,4.83
2022-07-30T12:20:17.847Z,4.70
2022-07-30T12:22:46.722Z,4.57
2022-07-30T12:25:16.903Z,3.83
2022-07-30T12:27:52.130Z,4.70
2022-07-30T12:30:21.928Z,4.20
2022-07-30T12:32:50.218Z,4.13
2022-07-30T12:35:18.818Z,4.20
2022-07-30T12:38:05.340Z,3.90
2022-07-30T12:40:33.421Z,3.47
2022-07-30T12:43:04.407Z,3.63
2022-07-30T12:45:51.535Z,3.70
2022-07-30T12:48:20.323Z,3.00
2022-07-30T12:50:50.232Z,2.67
2022-07-30T12:53:18.292Z,3.10
2022-07-30T12:55:46.653Z,3.00
2022-07-30T12:58:14.850Z,2.60
2022-07-30T13:00:52.688Z,2.80
2022-07-30T13:03:22.414Z,2.40
2022-07-30T13:05:55.214Z,2.40
2022-07-30T13:08:50.679Z,2.30
2022-07-30T13:11:20.012Z,2.40
2022-07-30T13:13:49.783Z,2.50
2022-07-30T13:16:20.495Z,2.17
2022-07-30T13:18:48.936Z,2.03
2022-07-30T13:21:16.975Z,2.00
2022-07-30T13:23:46.211Z,2.20
2022-07-30T13:26:14.320Z,2.00
2022-07-30T13:28:46.811Z,1.80
2022-07-30T13:31:18.247Z,1.90
2022-07-30T13:33:48.529Z,2.00
2022-07-30T13:36:17.067Z,1.73
2022-07-30T13:38:45.563Z,1.60
2022-07-30T13:41:21.298Z,1.60
2022-07-30T13:43:49.622Z,1.70
2022-07-30T13:46:18.311Z,1.60
2022-07-30T13:48:46.521Z,1.70
2022-07-30T13:51:16.508Z,1.80
2022-07-30T13:53:45.152Z,1.50
2022-07-30T13:56:13.596Z,1.47
2022-07-30T13:58:44.187Z,1.60
2022-07-30T14:01:17.563Z,1.40
2022-07-30T14:03:49.435Z,1.47
2022-07-30T14:06:21.757Z,1.60
2022-07-30T14:08:49.902Z,1.50
2022-07-30T14:11:18.230Z,1.60
2022-07-30T14:13:46.925Z,1.50
2022-07-30T14:16:42.392Z,1.53
2022-07-30T14:19:05.133Z,1.70
2022-07-30T14:21:34.994Z,1.50
2022-07-30T14:24:05.316Z,1.63
2022-07-30T14:26:38.794Z,1.60
2022-07-30T14:29:07.092Z,1.50
2022-07-30T14:31:35.782Z,1.50
2022-07-30T14:34:04.841Z,1.60
2022-07-30T14:36:37.453Z,1.60
2022-07-30T14:39:06.376Z,1.70
2022-07-30T14:41:34.903Z,1.60
2022-07-30T14:44:05.445Z,1.60
2022-07-30T14:46:33.956Z,1.73
2022-07-30T14:49:04.600Z,1.70
2022-07-30T14:51:34.786Z,1.77
2022-07-30T14:54:05.758Z,1.80
2022-07-30T14:56:33.848Z,1.80
2022-07-30T14:59:02.347Z,1.67
2022-07-30T15:01:32.318Z,1.80
2022-07-30T15:04:00.751Z,1.90
2022-07-30T15:06:30.868Z,1.50
2022-07-30T15:08:59.145Z,1.40
2022-07-30T15:11:31.091Z,1.70
2022-07-30T15:14:05.172Z,1.70
2022-07-30T15:16:33.851Z,1.73
2022-07-30T15:19:02.021Z,1.73
2022-07-30T15:21:30.175Z,1.60
2022-07-30T15:24:00.128Z,1.80
2022-07-30T15:26:34.304Z,1.70
2022-07-30T15:29:02.526Z,1.70
2022-07-30T15:31:33.939Z,1.60
2022-07-30T15:34:02.392Z,1.70
2022-07-30T15:36:30.593Z,1.83
2022-07-30T15:38:58.972Z,1.73
2022-07-30T15:41:27.117Z,1.50
2022-07-30T15:43:57.142Z,1.63
2022-07-30T15:46:25.517Z,1.70
2022-07-30T15:48:53.883Z,2.10
2022-07-30T15:51:22.695Z,1.97
2022-07-30T15:53:50.892Z,1.57
2022-07-30T15:56:19.590Z,1.63
2022-07-30T15:58:47.774Z,1.80
2022-07-30T16:01:18.761Z,1.80
2022-07-30T16:03:47.145Z,1.83
2022-07-30T16:06:16.410Z,1.60
2022-07-30T16:08:44.780Z,1.70
2022-07-30T16:11:13.324Z,1.70
2022-07-30T16:13:41.436Z,2.00
2022-07-30T16:16:10.169Z,2.10
2022-07-30T16:18:41.045Z,1.97
2022-07-30T16:21:09.314Z,2.20
2022-07-30T16:23:39.080Z,1.80
2022-07-30T16:26:07.799Z,1.80
2022-07-30T16:28:42.050Z,1.83
2022-07-30T16:31:10.442Z,1.53
2022-07-30T16:33:40.168Z,1.70
2022-07-30T16:36:16.993Z,1.87
2022-07-30T16:38:45.556Z,1.53
2022-07-30T16:41:13.917Z,1.60
2022-07-30T16:43:42.260Z,1.83
2022-07-30T16:46:12.746Z,1.80
2022-07-30T16:48:42.283Z,1.77
2022-07-30T16:51:14.189Z,1.77
2022-07-30T16:53:45.568Z,1.90
2022-07-30T16:56:14.066Z,1.83
2022-07-30T16:58:45.325Z,1.70
2022-07-30T17:01:13.662Z,1.90
2022-07-30T17:03:46.393Z,1.80
2022-07-30T17:06:14.545Z,2.10
2022-07-30T17:08:42.796Z,1.80
2022-07-30T17:11:14.479Z,1.90
2022-07-30T17:14:07.676Z,1.90
2022-07-30T17:16:36.100Z,1.73
2022-07-30T17:19:08.534Z,1.90
2022-07-30T17:21:38.180Z,1.67
2022-07-30T17:24:11.598Z,2.00
2022-07-30T17:26:43.056Z,1.90
2022-07-30T17:29:14.186Z,1.83
2022-07-30T17:31:44.228Z,1.80
2022-07-30T17:34:16.345Z,2.10
2022-07-30T17:36:52.214Z,2.07
2022-07-30T17:40:04.079Z,2.07
2022-07-30T17:42:10.601Z,1.90
2022-07-30T17:44:39.625Z,1.97
2022-07-30T17:47:13.793Z,2.00
2022-07-30T17:49:44.611Z,1.80
2022-07-30T17:52:13.255Z,1.87
2022-07-30T17:54:42.249Z,2.10
2022-07-30T17:57:10.766Z,1.83
2022-07-30T17:59:39.076Z,2.17
2022-07-30T18:02:08.125Z,2.00
2022-07-30T18:04:36.965Z,1.80
2022-07-30T18:07:07.129Z,2.00
2022-07-30T18:09:39.550Z,2.10
2022-07-30T18:12:08.707Z,1.80
2022-07-30T18:14:37.364Z,1.70
2022-07-30T18:17:08.983Z,2.10
2022-07-30T18:19:39.403Z,2.20
2022-07-30T18:22:10.733Z,2.20
2022-07-30T18:24:43.863Z,2.20
2022-07-30T18:27:15.243Z,2.10
2022-07-30T18:29:43.632Z,2.07
2022-07-30T18:32:11.825Z,1.97
2022-07-30T18:34:40.002Z,2.00
2022-07-30T18:37:08.177Z,2.00
2022-07-30T18:39:38.467Z,2.20
2022-07-30T18:42:07.561Z,2.00
2022-07-30T18:44:35.864Z,2.10
2022-07-30T18:47:04.525Z,2.00
2022-07-30T18:49:36.983Z,2.13
2022-07-30T18:52:07.621Z,2.13
2022-07-30T18:54:39.049Z,2.20
2022-07-30T18:57:12.663Z,1.97
2022-07-30T18:59:42.952Z,2.00
2022-07-30T19:02:11.638Z,2.10
2022-07-30T19:04:39.884Z,1.90
2022-07-30T19:07:08.469Z,2.37
2022-07-30T19:09:38.408Z,2.10
2022-07-30T19:12:07.143Z,2.00
2022-07-30T19:14:35.930Z,2.10
2022-07-30T19:17:13.773Z,2.33
2022-07-30T19:19:42.841Z,2.10
2022-07-30T19:22:11.206Z,2.20
2022-07-30T19:25:10.843Z,2.17
2022-07-30T19:27:39.054Z,2.10
2022-07-30T19:30:08.159Z,2.20
2022-07-30T19:32:36.370Z,2.07
2022-07-30T19:35:04.914Z,2.27
2022-07-30T19:37:38.675Z,2.40
2022-07-30T19:40:12.758Z,2.20
2022-07-30T19:42:42.798Z,2.30
